Time;durP1;ratioP1;P1;durP2;ratioP2;P2;SDS_P1;SDS_P2;PMS_P1;PMS_P2;Temp;Humidity;BMP_temperature;BMP_pressure;BME280_temperature;BME280_humidity;BME280_pressure;Samples;Min_cycle;Max_cycle;Signal;HPM_P1;HPM_P2
2023/10/14 00:01:55;;;;;;;10.43;4.25;;;;;;;11.99;100.00;97815.09;5069151;28;20557;-75
2023/10/14 00:04:24;;;;;;;13.88;4.47;;;;;;;12.03;100.00;97819.31;5069157;28;20029;-75
2023/10/14 00:06:51;;;;;;;11.77;4.75;;;;;;;11.96;100.00;97818.84;5069091;28;20427;-75
2023/10/14 00:09:16;;;;;;;9.45;4.80;;;;;;;11.92;100.00;97822.66;5068762;28;20078;-75
2023/10/14 00:11:52;;;;;;;8.38;4.65;;;;;;;11.83;100.00;97810.69;5070201;28;20457;-75
2023/10/14 00:14:18;;;;;;;11.68;4.65;;;;;;;11.76;100.00;97811.16;5048869;28;20067;-75
2023/10/14 00:16:51;;;;;;;14.15;5.10;;;;;;;11.73;100.00;97816.72;5085595;28;20024;-75
2023/10/14 00:19:18;;;;;;;;;;;;;;;11.79;100.00;97817.19;5070461;28;20037;-75
2023/10/14 00:21:45;;;;;;;8.77;4.53;;;;;;;11.74;100.00;97813.94;5068752;28;20418;-75
2023/10/14 00:24:15;;;;;;;10.48;5.30;;;;;;;11.71;100.00;97811.47;5068694;28;20024;-75
2023/10/14 00:26:41;;;;;;;11.10;4.35;;;;;;;11.68;100.00;97808.94;5072430;28;20448;-75
2023/10/14 00:31:41;;;;;;;9.27;4.70;;;;;;;11.52;100.00;97800.13;5072381;28;20034;-74
2023/10/14 00:34:07;;;;;;;9.38;4.75;;;;;;;11.58;100.00;97801.56;5072638;28;20016;-76
2023/10/14 00:36:34;;;;;;;8.82;4.70;;;;;;;11.63;100.00;97799.47;5072190;28;20024;-76
2023/10/14 00:39:12;;;;;;;11.40;4.50;;;;;;;11.62;100.00;97801.28;5072480;28;20028;-76
2023/10/14 00:41:42;;;;;;;8.68;4.53;;;;;;;11.58;100.00;97804.22;5056952;28;20221;-76
2023/10/14 00:44:08;;;;;;;12.85;4.53;;;;;;;11.52;100.00;97800.13;5072453;28;20058;-76
2023/10/14 00:46:35;;;;;;;9.25;4.35;;;;;;;11.56;100.00;97800.78;5071922;28;20399;-75
2023/10/14 00:49:02;;;;;;;13.63;4.75;;;;;;;11.54;100.00;97794.66;5048871;28;20123;-76
2023/10/14 00:51:30;;;;;;;14.95;4.40;;;;;;;11.48;100.00;97795.03;5072283;28;20020;-75
2023/10/14 00:54:05;;;;;;;14.32;4.90;;;;;;;11.41;100.00;97791.91;5072193;28;20039;-75
2023/10/14 00:56:31;;;;;;;20.42;4.82;;;;;;;11.52;100.00;97793.91;5072108;28;20056;-76
2023/10/14 00:58:59;;;;;;;12.77;5.25;;;;;;;11.52;100.00;97786.72;5055553;28;20037;-75
2023/10/14 01:01:30;;;;;;;14.05;4.55;;;;;;;11.57;100.00;97791.78;5072005;28;20449;-76
2023/10/14 01:04:56;;;;;;;19.00;5.15;;;;;;;11.55;100.00;97788.34;5072272;28;20120;-76
2023/10/14 01:06:55;;;;;;;9.00;4.68;;;;;;;11.56;100.00;97782.03;5062921;28;20115;-75
2023/10/14 01:09:30;;;;;;;10.73;5.10;;;;;;;11.47;100.00;97775.44;5071833;28;20028;-75
2023/10/14 01:11:56;;;;;;;13.70;5.72;;;;;;;11.39;100.00;97769.69;5073125;28;20036;-75
2023/10/14 01:14:23;;;;;;;12.55;5.22;;;;;;;11.40;100.00;97776.78;5054771;28;20077;-77
2023/10/14 01:16:49;;;;;;;9.57;4.65;;;;;;;11.20;100.00;97774.44;5071668;28;20035;-75
2023/10/14 01:19:20;;;;;;;14.40;5.15;;;;;;;11.14;100.00;97764.97;5071282;28;20120;-75
2023/10/14 01:21:50;;;;;;;13.47;4.73;;;;;;;11.12;100.00;97766.03;5072263;28;20036;-75
2023/10/14 01:24:16;;;;;;;7.50;4.35;;;;;;;11.07;100.00;97774.34;5072529;28;20100;-74
2023/10/14 01:27:21;;;;;;;10.73;5.55;;;;;;;11.10;100.00;97774.16;5088139;28;20032;-74
2023/10/14 01:29:41;;;;;;;14.88;5.20;;;;;;;11.11;100.00;97772.31;5077215;28;20050;-75
2023/10/14 01:32:23;;;;;;;8.10;4.85;;;;;;;10.99;100.00;97768.56;5071085;28;20098;-74
2023/10/14 01:34:55;;;;;;;13.07;4.90;;;;;;;10.96;100.00;97765.22;5072307;28;20122;-75
2023/10/14 01:37:21;;;;;;;12.95;5.90;;;;;;;10.86;100.00;97759.53;5071200;28;20032;-75
2023/10/14 01:39:56;;;;;;;13.27;5.22;;;;;;;10.81;100.00;97767.84;5071017;28;20024;-76
2023/10/14 01:42:22;;;;;;;11.63;5.03;;;;;;;10.87;100.00;97766.63;5071123;28;20025;-75
2023/10/14 01:44:53;;;;;;;8.57;5.32;;;;;;;10.77;100.00;97760.09;5071096;28;20414;-76
2023/10/14 01:47:20;;;;;;;8.70;4.80;;;;;;;10.76;100.00;97758.38;5087669;28;20496;-75
2023/10/14 01:49:46;;;;;;;17.13;4.90;;;;;;;10.66;100.00;97758.06;5070940;28;20081;-76
2023/10/14 01:52:15;;;;;;;11.07;5.18;;;;;;;10.63;100.00;97765.41;5070938;28;20028;-75
2023/10/14 01:54:41;;;;;;;12.60;5.00;;;;;;;10.72;100.00;97751.50;5070898;28;20047;-75
2023/10/14 01:57:17;;;;;;;8.55;4.70;;;;;;;10.67;100.00;97753.59;5070693;28;20017;-75
2023/10/14 01:59:45;;;;;;;8.85;5.28;;;;;;;10.55;100.00;97752.47;5070951;28;20025;-75
2023/10/14 02:02:12;;;;;;;16.13;5.93;;;;;;;10.57;100.00;97747.03;5070501;28;20028;-76
2023/10/14 02:04:38;;;;;;;16.05;5.00;;;;;;;10.58;100.00;97748.78;5070649;28;20056;-75
2023/10/14 02:07:19;;;;;;;12.05;4.85;;;;;;;10.62;100.00;97750.31;5070571;28;20056;-76
2023/10/14 02:09:45;;;;;;;12.40;5.68;;;;;;;10.57;100.00;97747.03;5072031;28;20058;-76
2023/10/14 02:12:12;;;;;;;11.18;5.75;;;;;;;10.62;100.00;97755.66;5070447;28;20032;-76
2023/10/14 02:14:44;;;;;;;7.82;5.20;;;;;;;10.63;100.00;97747.56;5070158;28;20028;-76
2023/10/14 02:17:11;;;;;;;9.52;5.20;;;;;;;10.67;100.00;97742.88;5054169;28;20344;-76
2023/10/14 02:19:36;;;;;;;12.93;5.53;;;;;;;10.64;100.00;97743.06;5069948;28;20466;-76
2023/10/14 02:22:03;;;;;;;12.35;5.00;;;;;;;10.59;100.00;97742.44;5070335;28;20040;-75
2023/10/14 02:24:29;;;;;;;9.82;5.80;;;;;;;10.61;100.00;97751.28;5070597;28;20108;-76
2023/10/14 02:27:04;;;;;;;13.05;5.72;;;;;;;10.63;100.00;97749.34;5070004;28;20035;-75
2023/10/14 02:29:32;;;;;;;13.98;5.47;;;;;;;10.53;100.00;97740.13;5069983;28;20034;-75
2023/10/14 02:32:00;;;;;;;14.77;5.60;;;;;;;10.57;100.00;97742.56;5071288;28;20039;-76
2023/10/14 02:34:27;;;;;;;14.15;6.07;;;;;;;10.61;100.00;97740.56;5070499;28;20033;-76
2023/10/14 02:36:53;;;;;;;12.88;6.18;;;;;;;10.54;100.00;97742.75;5069998;28;20016;-76
2023/10/14 02:39:26;;;;;;;14.52;5.68;;;;;;;10.62;100.00;97745.81;5069848;28;20484;-76
2023/10/14 02:42:06;;;;;;;11.82;5.75;;;;;;;10.56;100.00;97746.19;5070765;28;20396;-76
2023/10/14 02:44:43;;;;;;;13.60;6.13;;;;;;;10.53;100.00;97740.13;5070275;28;20032;-75
2023/10/14 02:47:09;;;;;;;11.75;6.05;;;;;;;10.61;100.00;97743.25;5069931;28;20559;-76
2023/10/14 02:49:40;;;;;;;17.90;6.47;;;;;;;10.49;100.00;97738.63;5069256;28;20111;-75
2023/10/14 02:52:10;;;;;;;16.20;6.78;;;;;;;10.43;100.00;97741.66;5069654;28;20119;-76
2023/10/14 02:55:26;;;;;;;13.57;6.18;;;;;;;10.43;100.00;97738.97;5069907;28;20024;-76
2023/10/14 02:57:32;;;;;;;10.75;6.10;;;;;;;10.34;100.00;97741.22;5064571;28;20097;-76
2023/10/14 03:00:00;;;;;;;10.43;5.80;;;;;;;10.37;100.00;97739.34;5069660;28;20024;-75
2023/10/14 03:02:27;;;;;;;14.40;5.80;;;;;;;10.26;100.00;97727.44;5069587;28;20070;-76
2023/10/14 03:07:46;;;;;;;11.65;5.55;;;;;;;10.34;100.00;97735.88;5069905;28;20518;-74
2023/10/14 03:12:49;;;;;;;10.85;5.95;;;;;;;10.17;100.00;97738.66;5070448;28;20032;-76
2023/10/14 03:15:19;;;;;;;9.50;6.03;;;;;;;10.16;100.00;97738.75;5069542;28;20093;-75
2023/10/14 03:18:01;;;;;;;27.55;10.65;;;;;;;10.09;100.00;97735.50;5086059;28;20031;-76
2023/10/14 03:20:35;;;;;;;47.00;15.60;;;;;;;10.04;100.00;97742.94;5070891;28;20020;-76
2023/10/14 03:23:19;;;;;;;20.42;8.48;;;;;;;10.05;100.00;97738.47;5069375;28;20039;-76
2023/10/14 03:25:49;;;;;;;16.73;7.10;;;;;;;10.05;100.00;97742.00;5085485;28;20029;-76
2023/10/14 03:28:19;;;;;;;8.77;4.95;;;;;;;9.98;100.00;97734.41;5069082;28;20025;-75
2023/10/14 03:30:55;;;;;;;10.88;5.60;;;;;;;9.94;100.00;97731.03;5069332;28;20094;-76
2023/10/14 03:33:21;;;;;;;15.07;5.95;;;;;;;9.82;100.00;97735.28;5053233;28;20400;-76
2023/10/14 03:36:02;;;;;;;20.58;7.00;;;;;;;9.81;100.00;97746.06;5069023;28;20025;-76
2023/10/14 03:41:03;;;;;;;15.00;7.60;;;;;;;9.82;100.00;97742.41;5070330;28;20029;-76
2023/10/14 03:43:30;;;;;;;18.67;6.70;;;;;;;9.84;100.00;97739.69;5069169;28;20054;-75
2023/10/14 03:46:02;;;;;;;11.77;5.75;;;;;;;9.76;100.00;97729.41;5068944;28;20063;-76
2023/10/14 03:48:29;;;;;;;20.43;5.53;;;;;;;9.70;100.00;97738.63;5068958;28;20032;-75
2023/10/14 03:51:04;;;;;;;11.48;5.80;;;;;;;9.63;100.00;97731.88;5068941;28;20029;-74
2023/10/14 03:53:31;;;;;;;12.75;5.35;;;;;;;9.61;100.00;97728.47;5069082;28;20067;-75
2023/10/14 03:55:57;;;;;;;15.02;6.15;;;;;;;9.60;100.00;97734.72;5069080;28;20124;-75
2023/10/14 03:58:24;;;;;;;11.90;6.00;;;;;;;9.76;100.00;97740.97;5068794;28;20100;-75
2023/10/14 04:00:50;;;;;;;29.60;9.60;;;;;;;9.78;100.00;97735.53;5071747;28;20020;-75
2023/10/14 04:03:33;;;;;;;14.30;8.10;;;;;;;9.65;100.00;97727.34;5072876;28;20024;-76
2023/10/14 04:06:00;;;;;;;12.50;6.38;;;;;;;9.48;100.00;97729.19;5074188;28;20020;-76
2023/10/14 04:08:31;;;;;;;15.38;7.38;;;;;;;9.47;100.00;97722.16;5089379;28;20120;-75
2023/10/14 04:11:12;;;;;;;15.48;7.47;;;;;;;9.50;100.00;97720.19;5074027;28;20023;-75
2023/10/14 04:13:40;;;;;;;16.40;7.78;;;;;;;9.56;100.00;97727.00;5073002;28;20418;-77
2023/10/14 04:16:11;;;;;;;28.27;9.70;;;;;;;9.50;100.00;97732.66;5072744;28;20021;-75
2023/10/14 04:18:37;;;;;;;16.13;7.63;;;;;;;9.45;100.00;97721.34;5073075;28;20045;-75
2023/10/14 04:23:48;;;;;;;19.65;7.43;;;;;;;9.40;100.00;97729.63;5072665;28;20029;-75
2023/10/14 04:26:14;;;;;;;27.00;9.70;;;;;;;9.32;100.00;97712.31;5072435;28;20040;-75
2023/10/14 04:28:53;;;;;;;16.08;8.07;;;;;;;9.27;100.00;97717.88;5072156;28;20090;-76
2023/10/14 04:31:38;;;;;;;18.17;8.13;;;;;;;9.37;100.00;97728.94;5087488;28;20028;-75
2023/10/14 04:34:06;;;;;;;18.08;7.57;;;;;;;9.33;100.00;97722.03;5074391;28;20024;-75
2023/10/14 04:39:12;;;;;;;21.75;8.45;;;;;;;9.40;100.00;97724.28;5072575;28;20024;-75
2023/10/14 04:41:45;;;;;;;17.52;9.32;;;;;;;9.36;100.00;97721.84;5073316;28;20494;-75
2023/10/14 04:44:12;;;;;;;19.25;8.68;;;;;;;9.42;100.00;97725.06;5072390;28;20063;-75
2023/10/14 04:46:51;;;;;;;21.27;9.10;;;;;;;9.58;100.00;97735.78;5071860;28;20107;-75
2023/10/14 04:49:17;;;;;;;19.38;8.32;;;;;;;9.60;100.00;97720.50;5073445;28;20032;-77
2023/10/14 04:51:45;;;;;;;19.52;7.30;;;;;;;9.66;100.00;97725.50;5072298;28;20032;-75
2023/10/14 04:54:15;;;;;;;19.33;7.82;;;;;;;9.60;100.00;97716.03;5072707;28;20017;-75
2023/10/14 04:56:45;;;;;;;22.75;8.18;;;;;;;9.66;100.00;97715.69;5070848;28;20020;-75
2023/10/14 04:59:12;;;;;;;15.85;7.85;;;;;;;9.78;100.00;97716.84;5071035;28;20020;-76
2023/10/14 05:01:41;;;;;;;21.83;8.48;;;;;;;9.70;100.00;97700.38;5069525;28;20024;-76
2023/10/14 05:04:08;;;;;;;21.95;8.45;;;;;;;9.79;100.00;97715.88;5069177;28;20488;-75
2023/10/14 05:06:42;;;;;;;24.27;7.47;;;;;;;9.95;100.00;97716.75;5069025;28;20025;-75
2023/10/14 05:09:22;;;;;;;18.30;7.80;;;;;;;10.13;100.00;97728.19;5068621;28;20032;-75
2023/10/14 05:11:48;;;;;;;23.75;8.35;;;;;;;10.12;100.00;97713.97;5069625;28;20083;-73
2023/10/14 05:14:25;;;;;;;21.80;8.88;;;;;;;10.34;100.00;97714.47;5068592;28;20082;-73
2023/10/14 05:16:53;;;;;;;37.03;11.73;;;;;;;11.05;100.00;97712.00;5070026;28;20012;-72
2023/10/14 05:19:30;;;;;;;30.38;10.18;;;;;;;11.80;100.00;97703.69;5068141;28;20060;-75
2023/10/14 05:22:04;;;;;;;37.28;11.32;;;;;;;12.00;100.00;97702.38;5068594;28;20055;-70
2023/10/14 05:24:31;;;;;;;35.60;11.23;;;;;;;11.82;100.00;97712.47;5068468;28;20029;-71
2023/10/14 05:27:00;;;;;;;28.02;9.45;;;;;;;11.73;100.00;97721.09;5048777;28;20033;-70
2023/10/14 05:29:29;;;;;;;31.88;10.15;;;;;;;11.52;100.00;97717.06;5083773;28;20032;-70
2023/10/14 05:32:39;;;;;;;28.15;10.90;;;;;;;11.64;100.00;97716.31;5051668;28;20040;-71
2023/10/14 05:34:45;;;;;;;31.63;12.15;;;;;;;12.72;100.00;97718.09;5051416;28;20060;-71
2023/10/14 05:37:12;;;;;;;37.13;11.30;;;;;;;13.58;100.00;97708.50;5066513;28;20412;-73
2023/10/14 05:39:39;;;;;;;17.10;10.10;;;;;;;14.41;100.00;97686.22;5049470;28;20037;-71
2023/10/14 05:42:17;;;;;;;25.38;10.82;;;;;;;15.34;100.00;97693.38;5049204;28;20403;-71
2023/10/14 05:44:57;;;;;;;26.58;10.90;;;;;;;16.15;100.00;97691.25;5048138;28;20028;-70
2023/10/14 05:47:27;;;;;;;31.95;13.38;;;;;;;16.63;100.00;97686.38;5052200;28;20032;-70
2023/10/14 05:49:52;;;;;;;36.97;13.80;;;;;;;16.88;100.00;97690.56;5051732;28;20028;-70
2023/10/14 05:52:23;;;;;;;35.55;10.75;;;;;;;17.61;100.00;97685.06;5050974;28;20056;-70
2023/10/14 05:54:49;;;;;;;22.17;9.27;;;;;;;17.88;99.63;97679.06;5043006;28;20544;-71
2023/10/14 05:57:17;;;;;;;16.08;9.88;;;;;;;18.57;95.07;97677.28;5047749;28;20104;-71
2023/10/14 05:59:43;;;;;;;30.17;10.07;;;;;;;18.74;91.52;97681.09;5047459;28;20102;-71
2023/10/14 06:02:12;;;;;;;24.48;11.07;;;;;;;18.47;91.27;97676.34;5034423;28;20032;-72
2023/10/14 06:04:42;;;;;;;41.33;12.55;;;;;;;18.05;95.85;97681.13;5051294;28;20059;-72
2023/10/14 06:07:12;;;;;;;38.15;13.68;;;;;;;18.66;91.98;97687.25;5051225;28;20064;-71
2023/10/14 06:09:38;;;;;;;53.65;20.13;;;;;;;19.01;90.07;97677.69;5050957;28;20085;-71
2023/10/14 06:12:12;;;;;;;44.50;17.92;;;;;;;18.31;92.40;97686.88;5067641;28;20410;-71
2023/10/14 06:14:39;;;;;;;36.60;12.68;;;;;;;18.63;93.59;97678.56;5067618;28;20032;-71
2023/10/14 06:17:04;;;;;;;26.00;11.05;;;;;;;19.50;88.90;97677.50;5067444;28;20051;-71
2023/10/14 06:19:31;;;;;;;33.80;10.68;;;;;;;19.41;86.06;97670.25;5068502;28;20501;-70
2023/10/14 06:21:56;;;;;;;28.08;10.45;;;;;;;19.49;83.41;97670.34;5067217;28;20405;-72
2023/10/14 06:24:24;;;;;;;27.92;11.52;;;;;;;20.11;80.51;97671.53;5066987;28;20036;-71
2023/10/14 06:26:58;;;;;;;24.45;9.80;;;;;;;20.72;77.06;97674.44;5050442;28;20132;-71
2023/10/14 06:29:25;;;;;;;23.80;10.68;;;;;;;21.47;71.05;97663.06;5083898;28;20115;-71
2023/10/14 06:31:52;;;;;;;27.10;9.35;;;;;;;22.73;63.04;97649.50;5067460;28;20744;-71
2023/10/14 06:34:20;;;;;;;21.92;11.15;;;;;;;22.29;64.93;97651.56;5066987;28;20070;-72
2023/10/14 06:36:47;;;;;;;23.45;10.52;;;;;;;21.65;67.60;97650.22;5067248;28;20460;-71
2023/10/14 06:39:14;;;;;;;25.52;10.75;;;;;;;22.39;64.68;97652.28;5066660;28;20032;-72
2023/10/14 06:41:43;;;;;;;24.00;10.57;;;;;;;22.88;62.84;97645.94;5066708;28;20078;-72
2023/10/14 06:44:15;;;;;;;16.13;9.20;;;;;;;22.57;62.67;97651.16;5050639;28;20491;-71
2023/10/14 06:46:44;;;;;;;23.20;10.18;;;;;;;22.30;65.15;97653.28;5083314;28;20403;-71
2023/10/14 06:49:13;;;;;;;29.20;10.35;;;;;;;22.52;64.02;97648.06;5066933;28;20044;-70
2023/10/14 06:51:42;;;;;;;20.42;9.65;;;;;;;23.02;60.61;97647.13;5067546;28;20032;-71
2023/10/14 06:54:09;;;;;;;36.67;11.13;;;;;;;21.42;70.12;97659.94;5066861;28;20048;-71
2023/10/14 06:56:40;;;;;;;24.30;11.73;;;;;;;21.67;70.55;97659.09;5066684;28;20031;-70
2023/10/14 06:59:06;;;;;;;26.65;11.65;;;;;;;22.11;67.84;97647.09;5068265;28;20111;-71
2023/10/14 07:01:33;;;;;;;22.90;10.15;;;;;;;21.80;71.74;97656.78;5066724;28;20107;-71
2023/10/14 07:03:59;;;;;;;15.95;10.20;;;;;;;22.17;69.62;97650.16;5049715;28;20028;-71
2023/10/14 07:06:26;;;;;;;23.15;10.95;;;;;;;21.63;71.78;97644.06;5066064;28;20519;-71
2023/10/14 07:08:52;;;;;;;23.52;9.70;;;;;;;22.02;70.46;97648.09;5066082;28;20466;-71
2023/10/14 07:11:18;;;;;;;22.23;9.68;;;;;;;22.19;70.32;97637.22;5067772;28;20086;-72
2023/10/14 07:13:46;;;;;;;22.17;9.88;;;;;;;23.23;64.95;97640.13;5065916;28;20040;-72
2023/10/14 07:16:11;;;;;;;30.02;11.25;;;;;;;23.10;63.20;97628.88;5066288;28;20390;-71
2023/10/14 07:18:37;;;;;;;21.23;10.20;;;;;;;24.25;59.36;97625.75;5065960;28;20052;-70
2023/10/14 07:21:04;;;;;;;21.40;10.60;;;;;;;23.98;57.73;97620.72;5049662;28;20062;-70
2023/10/14 07:23:34;;;;;;;21.75;9.85;;;;;;;24.49;57.57;97624.75;5066238;28;20032;-70
2023/10/14 07:26:11;;;;;;;30.45;10.82;;;;;;;25.26;53.94;97615.47;5066265;28;20071;-70
2023/10/14 07:28:42;;;;;;;19.70;9.70;;;;;;;25.68;52.62;97610.31;5065905;28;20107;-70
2023/10/14 07:31:10;;;;;;;18.23;8.05;;;;;;;25.59;51.28;97616.06;5067171;28;20102;-70
2023/10/14 07:33:37;;;;;;;20.55;9.32;;;;;;;24.89;53.62;97621.78;5066009;28;20250;-71
2023/10/14 07:36:06;;;;;;;26.42;9.30;;;;;;;25.66;51.35;97601.41;5065824;28;20104;-70
2023/10/14 07:38:35;;;;;;;17.77;8.75;;;;;;;26.85;48.31;97598.34;5066691;28;20028;-71
2023/10/14 07:41:01;;;;;;;23.88;10.43;;;;;;;26.56;47.88;97588.28;5049810;28;20029;-73
2023/10/14 07:43:27;;;;;;;20.15;10.15;;;;;;;26.27;48.62;97591.94;5049669;28;20029;-71
2023/10/14 07:45:53;;;;;;;24.33;9.63;;;;;;;27.57;47.06;97578.91;5065594;28;20037;-71
2023/10/14 07:48:20;;;;;;;28.52;9.95;;;;;;;28.01;45.10;97576.66;5066208;28;20513;-71
2023/10/14 07:50:47;;;;;;;21.98;10.80;;;;;;;29.11;43.17;97574.47;5066976;28;20028;-71
2023/10/14 07:53:14;;;;;;;24.45;10.27;;;;;;;27.29;45.27;97570.63;5049153;28;20032;-71
2023/10/14 07:55:47;;;;;;;18.13;9.07;;;;;;;27.72;43.65;97563.13;5065808;28;20072;-71
2023/10/14 07:58:14;;;;;;;17.88;8.27;;;;;;;25.99;46.91;97569.00;5066203;28;20057;-71
2023/10/14 08:00:41;;;;;;;21.48;8.07;;;;;;;26.75;46.36;97554.69;5065860;28;20488;-71
2023/10/14 08:03:14;;;;;;;19.52;7.50;;;;;;;27.70;44.33;97557.84;5065480;28;20452;-70
2023/10/14 08:05:41;;;;;;;20.75;6.90;;;;;;;26.72;46.02;97557.00;5049723;28;20032;-71
2023/10/14 08:08:09;;;;;;;14.52;6.35;;;;;;;25.81;47.91;97554.81;5065745;28;20090;-71
2023/10/14 08:10:45;;;;;;;20.08;7.10;;;;;;;26.90;47.06;97551.91;5065837;28;20479;-71
2023/10/14 08:13:12;;;;;;;9.93;5.40;;;;;;;27.53;44.55;97550.13;5081458;28;20028;-71
2023/10/14 08:15:38;;;;;;;11.73;5.18;;;;;;;27.45;43.65;97540.97;5065760;28;20029;-71
2023/10/14 08:18:07;;;;;;;8.32;5.20;;;;;;;26.27;45.71;97550.78;5067115;28;20053;-71
2023/10/14 08:20:33;;;;;;;19.30;10.25;;;;;;;26.05;46.53;97535.31;5082319;28;20037;-71
2023/10/14 08:22:59;;;;;;;14.85;6.18;;;;;;;26.98;45.33;97534.47;5066913;28;20035;-70
2023/10/14 08:25:25;;;;;;;17.88;5.55;;;;;;;26.78;44.68;97526.84;5065703;28;20028;-70
2023/10/14 08:27:54;;;;;;;14.57;4.50;;;;;;;27.31;43.48;97522.69;5067009;28;20085;-71
2023/10/14 08:30:24;;;;;;;19.02;4.85;;;;;;;27.63;43.43;97514.84;5065762;28;20020;-71
2023/10/14 08:32:50;;;;;;;8.95;4.88;;;;;;;28.97;40.89;97506.66;5065621;28;20143;-71
2023/10/14 08:35:17;;;;;;;12.93;4.47;;;;;;;29.27;39.50;97493.31;5082244;28;20036;-70
2023/10/14 08:37:47;;;;;;;24.10;5.15;;;;;;;29.32;39.47;97488.84;5082228;28;20036;-70
2023/10/14 08:40:20;;;;;;;12.85;4.20;;;;;;;30.26;38.20;97485.59;5065022;28;20036;-70
2023/10/14 08:42:50;;;;;;;13.23;4.43;;;;;;;30.13;38.36;97481.00;5065386;28;20508;-70
2023/10/14 08:45:21;;;;;;;9.93;4.10;;;;;;;31.50;36.78;97476.41;5082061;28;20178;-69
2023/10/14 08:47:51;;;;;;;11.82;5.00;;;;;;;32.13;35.48;97470.59;5069294;28;20028;-71
2023/10/14 08:50:29;;;;;;;13.13;5.63;;;;;;;31.29;36.70;97470.44;5070246;28;20024;-71
2023/10/14 08:52:56;;;;;;;16.33;4.43;;;;;;;30.37;37.38;97466.41;5069130;28;20028;-71
2023/10/14 08:55:22;;;;;;;10.38;4.97;;;;;;;30.36;37.62;97470.28;5069017;28;20163;-71
2023/10/14 08:57:49;;;;;;;13.80;5.82;;;;;;;30.00;38.35;97464.50;5068859;28;20024;-70
2023/10/14 09:00:26;;;;;;;13.93;4.90;;;;;;;30.09;37.34;97465.94;5068685;28;20040;-71
2023/10/14 09:02:54;;;;;;;12.23;4.68;;;;;;;30.78;36.75;97454.06;5068664;28;20025;-71
2023/10/14 09:05:20;;;;;;;17.85;4.95;;;;;;;30.76;36.58;97454.31;5068731;28;20039;-71
2023/10/14 09:07:49;;;;;;;20.95;5.00;;;;;;;30.48;37.05;97454.72;5068772;28;20106;-71
2023/10/14 09:10:19;;;;;;;12.55;4.40;;;;;;;30.25;37.75;97443.34;5069742;28;20500;-71
2023/10/14 09:13:00;;;;;;;12.40;4.97;;;;;;;32.24;35.17;97442.09;5070228;28;20055;-71
2023/10/14 09:15:32;;;;;;;13.50;4.88;;;;;;;32.16;34.57;97434.97;5068585;28;20033;-71
2023/10/14 09:17:59;;;;;;;20.65;5.15;;;;;;;31.97;34.97;97438.81;5068412;28;20071;-71
2023/10/14 09:20:33;;;;;;;12.20;5.25;;;;;;;32.31;34.49;97429.00;5068407;28;20394;-70
2023/10/14 09:23:17;;;;;;;15.80;5.03;;;;;;;31.56;35.29;97425.69;5051786;28;20032;-70
2023/10/14 09:25:44;;;;;;;15.77;4.35;;;;;;;31.89;35.55;97416.16;5069800;28;20048;-70
2023/10/14 09:28:20;;;;;;;13.88;4.45;;;;;;;31.61;35.50;97420.34;5068125;28;20513;-70
2023/10/14 09:30:50;;;;;;;14.02;4.93;;;;;;;31.79;35.13;97405.63;5070427;28;20059;-70
2023/10/14 09:33:27;;;;;;;18.45;5.70;;;;;;;31.44;35.80;97407.31;5068365;28;20051;-71
2023/10/14 09:36:02;;;;;;;13.23;4.38;;;;;;;31.87;35.39;97407.25;5072805;28;20028;-71
2023/10/14 09:38:28;;;;;;;13.13;5.70;;;;;;;32.64;34.41;97385.06;5086775;28;20048;-71
2023/10/14 09:41:04;;;;;;;19.23;7.00;;;;;;;33.64;33.11;97379.41;5071015;28;20012;-71
2023/10/14 09:43:30;;;;;;;15.07;5.82;;;;;;;33.14;33.91;97373.53;5087694;28;20130;-72
2023/10/14 09:45:57;;;;;;;16.30;5.43;;;;;;;34.24;32.38;97368.75;5054154;28;20052;-71
2023/10/14 09:48:29;;;;;;;17.10;5.90;;;;;;;35.26;30.77;97353.53;5070601;28;20024;-71
2023/10/14 09:50:55;;;;;;;11.15;3.63;;;;;;;35.65;29.56;97343.25;5070722;28;20016;-71
2023/10/14 09:53:28;;;;;;;12.35;3.58;;;;;;;36.25;28.87;97331.13;5068054;28;20521;-71
2023/10/14 09:56:07;;;;;;;8.73;3.70;;;;;;;36.32;28.88;97329.81;5070823;28;20448;-70
2023/10/14 09:58:43;;;;;;;10.55;3.50;;;;;;;37.90;26.62;97316.72;5070123;28;20123;-70
2023/10/14 10:01:17;;;;;;;8.05;3.10;;;;;;;38.92;24.98;97301.78;5070576;28;20400;-70
2023/10/14 10:03:48;;;;;;;5.10;3.00;;;;;;;36.94;25.92;97288.25;5070626;28;20423;-70
2023/10/14 10:06:13;;;;;;;10.20;3.67;;;;;;;37.60;25.61;97283.06;5087289;28;20044;-71
2023/10/14 10:08:59;;;;;;;19.50;5.18;;;;;;;37.14;26.93;97286.72;5071603;28;20047;-70
2023/10/14 10:11:26;;;;;;;9.25;3.15;;;;;;;37.01;26.36;97279.66;5070511;28;20016;-71
2023/10/14 10:13:53;;;;;;;11.55;3.30;;;;;;;37.05;26.49;97274.38;5070402;28;20170;-70
2023/10/14 10:16:20;;;;;;;7.07;2.97;;;;;;;36.96;27.00;97271.25;5070286;28;20029;-71
2023/10/14 10:18:50;;;;;;;8.82;4.43;;;;;;;39.23;25.31;97273.75;5064956;28;20052;-71
2023/10/14 10:21:18;;;;;;;9.23;3.70;;;;;;;37.33;26.13;97265.59;5071668;28;20024;-71
2023/10/14 10:23:44;;;;;;;6.95;3.63;;;;;;;38.47;24.79;97259.81;5070126;28;20074;-70
2023/10/14 10:26:12;;;;;;;7.43;3.88;;;;;;;38.85;23.78;97255.63;5071402;28;20412;-70
2023/10/14 10:28:38;;;;;;;6.13;2.92;;;;;;;39.45;22.72;97249.03;5071034;28;20043;-70
2023/10/14 10:31:09;;;;;;;8.48;3.30;;;;;;;40.46;22.02;97240.88;5086921;28;20020;-70
2023/10/14 10:33:46;;;;;;;6.25;2.70;;;;;;;40.63;22.15;97229.25;5069952;28;20032;-70
2023/10/14 10:36:13;;;;;;;9.85;3.03;;;;;;;41.07;21.39;97229.13;5069855;28;20114;-71
2023/10/14 10:38:39;;;;;;;4.85;2.47;;;;;;;40.24;21.50;97212.44;5071035;28;20058;-70
2023/10/14 10:41:23;;;;;;;9.23;3.40;;;;;;;40.22;21.47;97208.25;5052904;28;20036;-70
2023/10/14 10:43:51;;;;;;;6.88;2.72;;;;;;;40.76;21.26;97208.94;5069774;28;20031;-71
2023/10/14 10:46:38;;;;;;;5.35;2.47;;;;;;;41.34;20.55;97200.44;5069829;28;20031;-70
2023/10/14 10:49:09;;;;;;;13.43;3.00;;;;;;;40.29;21.09;97192.78;5086623;28;20025;-71
2023/10/14 10:51:36;;;;;;;7.95;2.60;;;;;;;39.48;21.55;97195.25;5069770;28;20034;-72
2023/10/14 10:54:02;;;;;;;7.45;2.70;;;;;;;39.32;21.72;97188.88;5069711;28;20020;-71
2023/10/14 10:56:35;;;;;;;2.97;2.20;;;;;;;39.01;22.17;97192.88;5069597;28;20078;-71
2023/10/14 10:59:04;;;;;;;6.65;2.85;;;;;;;39.26;21.49;97173.22;5070932;28;20476;-72
2023/10/14 11:01:33;;;;;;;4.95;2.78;;;;;;;39.67;21.85;97179.47;5069706;28;20024;-71
2023/10/14 11:04:00;;;;;;;7.35;2.67;;;;;;;39.22;22.02;97176.88;5069468;28;20030;-72
2023/10/14 11:06:29;;;;;;;5.45;2.78;;;;;;;39.84;21.54;97162.28;5069429;28;20051;-71
2023/10/14 11:08:57;;;;;;;4.40;2.60;;;;;;;40.30;20.75;97151.56;5068907;28;20020;-71
2023/10/14 11:11:31;;;;;;;7.47;2.97;;;;;;;40.38;21.24;97153.72;5070575;28;20395;-71
2023/10/14 11:13:56;;;;;;;4.65;2.85;;;;;;;40.05;21.04;97153.44;5069324;28;20131;-72
2023/10/14 11:16:22;;;;;;;5.00;2.60;;;;;;;40.43;20.71;97148.88;5069163;28;20535;-72
2023/10/14 11:18:48;;;;;;;7.38;3.53;;;;;;;39.62;21.93;97151.47;5069072;28;20071;-72
2023/10/14 11:21:18;;;;;;;7.60;3.05;;;;;;;39.31;21.35;97139.63;5069298;28;20550;-72
2023/10/14 11:23:44;;;;;;;4.43;2.78;;;;;;;39.84;21.53;97139.88;5069109;28;20063;-72
2023/10/14 11:26:12;;;;;;;5.43;2.63;;;;;;;39.73;20.96;97133.50;5069319;28;20024;-71
2023/10/14 11:28:39;;;;;;;3.70;2.72;;;;;;;39.26;20.68;97130.38;5069037;28;20028;-72
2023/10/14 11:31:09;;;;;;;4.55;2.80;;;;;;;39.93;20.70;97124.91;5070204;28;20029;-71
2023/10/14 11:33:35;;;;;;;8.77;2.50;;;;;;;39.77;20.72;97112.16;5069488;28;20095;-71
2023/10/14 11:36:02;;;;;;;7.88;2.70;;;;;;;39.59;21.08;97126.00;5068966;28;20052;-72
2023/10/14 11:38:30;;;;;;;5.95;2.58;;;;;;;40.82;20.81;97123.53;5085846;28;20020;-72
2023/10/14 11:40:58;;;;;;;3.72;2.80;;;;;;;41.17;20.81;97119.47;5068952;28;20027;-72
2023/10/14 11:43:24;;;;;;;4.35;2.78;;;;;;;40.32;20.77;97107.22;5069163;28;20028;-71
2023/10/14 11:45:51;;;;;;;3.03;2.53;;;;;;;40.22;20.25;97107.31;5068733;28;20064;-70
2023/10/14 11:48:22;;;;;;;4.13;2.50;;;;;;;39.52;20.28;97110.34;5069286;28;20099;-70
2023/10/14 11:50:50;;;;;;;5.50;3.30;;;;;;;38.56;21.04;97101.53;5085527;28;20028;-72
2023/10/14 11:53:22;;;;;;;5.18;2.40;;;;;;;38.37;21.54;97103.25;5070190;28;20505;-71